Lewiston Nez Perce County Airport Lewiston US
ICAO: KLWS
IATA: LWS
Category: Medium
Scheduled Services: Yes

Elevation: 1442 ft
TransAlt. 18000 ft.

Airport Communications:
ASOS:135.575
SEATTLE CNTR:123.95
CTAF:119.4
GND:121.9
BOISE RDO:122.35
TWR:119.4
UNICOM:122.95

KLWS Zoom In..

Runways:

(A) RW 08 length 6512 ft width 150 ft
---- / hdg 83

(B) RW 12 length 5000 ft width 100 ft
---- / hdg 116

(C) RW 26 length 6512 ft width 150 ft
ILS 109.70 / hdg 263

(D) RW 30 length 5000 ft width 100 ft
---- / hdg 296

Location; KLWS
Day. 20 / Time. 09.56 Zulu
* Altimeter: 30.18
* Temperature: 07° c. 44.6°f.
* Wind from: 000° Speed 00 kn.
Dewpoint: 01° c.
Visibility: 10 Statute Miles.
Clouds: Clear (automated report).

KLWS 200956Z AUTO 00000KT 10SM CLR 07/01 A3018 RMK AO2 SLP220 T00720006


Wind - Calm.

  YouTube Music Video
 
jpsmedia.com for Web Design  worldairports.se 2018   terms of use